Time;durP1;ratioP1;P1;durP2;ratioP2;P2;SDS_P1;SDS_P2;PMS_P1;PMS_P2;Temp;Humidity;BMP_temperature;BMP_pressure;BME280_temperature;BME280_humidity;BME280_pressure;Samples;Min_cycle;Max_cycle;Signal;HPM_P1;HPM_P2
2024/01/08 00:01:36;;;;;;;15.77;9.23;;;-0.90;99.90;;;;;;5093422;28;20226;-77
2024/01/08 00:04:03;;;;;;;17.70;10.80;;;-0.80;99.90;;;;;;5093140;28;20221;-76
2024/01/08 00:06:29;;;;;;;18.77;11.20;;;-0.80;99.90;;;;;;5093041;28;20224;-74
2024/01/08 00:08:55;;;;;;;17.60;11.00;;;-0.80;99.90;;;;;;5093335;28;20249;-77
2024/01/08 00:11:20;;;;;;;13.70;9.47;;;-0.80;99.90;;;;;;5093374;28;20160;-77
2024/01/08 00:13:46;;;;;;;20.33;11.63;;;-0.70;99.90;;;;;;5093316;28;20255;-77
2024/01/08 00:16:11;;;;;;;12.53;7.97;;;-0.70;99.90;;;;;;5096408;28;20167;-75
2024/01/08 00:18:37;;;;;;;17.57;11.33;;;-0.60;99.90;;;;;;5097158;28;20174;-75
2024/01/08 00:21:03;;;;;;;17.90;10.10;;;-0.70;99.90;;;;;;5097201;28;20703;-75
2024/01/08 00:23:30;;;;;;;18.57;10.20;;;-0.70;99.90;;;;;;5097103;28;20171;-76
2024/01/08 00:25:56;;;;;;;16.07;9.03;;;-0.70;99.90;;;;;;5097191;28;20175;-75
2024/01/08 00:28:22;;;;;;;13.13;8.90;;;-0.70;99.90;;;;;;5097249;28;20626;-77
2024/01/08 00:30:47;;;;;;;14.80;9.57;;;-0.70;99.90;;;;;;5096695;28;20302;-76
2024/01/08 00:33:13;;;;;;;15.73;9.83;;;-0.70;99.90;;;;;;5096766;28;20224;-75
2024/01/08 00:35:38;;;;;;;15.07;10.13;;;-0.70;99.90;;;;;;5097012;28;20610;-76
2024/01/08 00:38:04;;;;;;;16.80;9.87;;;-0.60;99.90;;;;;;5078875;28;20244;-75
2024/01/08 00:40:30;;;;;;;14.93;8.70;;;-0.60;99.90;;;;;;5096874;28;20203;-76
2024/01/08 00:42:55;;;;;;;15.77;9.90;;;-0.60;99.90;;;;;;5096941;28;20635;-74
2024/01/08 00:45:21;;;;;;;11.70;7.07;;;-0.70;99.90;;;;;;5096946;28;20557;-75
2024/01/08 00:47:47;;;;;;;7.03;6.33;;;-0.70;99.90;;;;;;5096547;28;20163;-76
2024/01/08 00:50:13;;;;;;;7.37;5.37;;;-0.70;99.90;;;;;;5078545;28;20246;-76
2024/01/08 00:52:42;;;;;;;14.73;8.57;;;-0.70;99.90;;;;;;5096912;28;20225;-76
2024/01/08 00:55:11;;;;;;;9.33;6.60;;;-0.70;99.90;;;;;;5096666;28;20196;-75
2024/01/08 00:57:37;;;;;;;13.93;7.97;;;-0.70;99.90;;;;;;5096675;28;20631;-75
2024/01/08 01:00:04;;;;;;;6.10;4.43;;;-0.60;99.90;;;;;;5096546;28;20655;-75
2024/01/08 01:02:30;;;;;;;8.53;6.67;;;-0.60;99.90;;;;;;5078187;28;20262;-76
2024/01/08 01:04:55;;;;;;;10.23;6.90;;;-0.60;99.90;;;;;;5096725;28;20581;-76
2024/01/08 01:07:21;;;;;;;8.70;5.77;;;-0.60;99.90;;;;;;5096671;28;20707;-76
2024/01/08 01:09:47;;;;;;;8.77;6.63;;;-0.60;99.90;;;;;;5096588;28;20304;-76
2024/01/08 01:12:13;;;;;;;7.17;5.47;;;-0.60;99.90;;;;;;5096512;28;20180;-75
2024/01/08 01:14:38;;;;;;;8.43;6.13;;;-0.60;99.90;;;;;;5096286;28;20168;-76
2024/01/08 01:17:04;;;;;;;9.20;6.43;;;-0.70;99.90;;;;;;5096151;28;20176;-75
2024/01/08 01:19:29;;;;;;;8.97;6.67;;;-0.70;99.90;;;;;;5096229;28;20635;-76
2024/01/08 01:21:55;;;;;;;8.40;7.00;;;-0.70;99.90;;;;;;5096202;28;20567;-74
2024/01/08 01:24:21;;;;;;;10.67;6.20;;;-0.70;99.90;;;;;;5096263;28;20528;-76
2024/01/08 01:26:46;;;;;;;8.47;6.03;;;-0.60;99.90;;;;;;5096121;28;20210;-76
2024/01/08 01:29:12;;;;;;;7.77;6.07;;;-0.60;99.90;;;;;;5095586;28;20227;-75
2024/01/08 01:31:37;;;;;;;10.70;8.20;;;-0.60;99.90;;;;;;5095984;28;20172;-75
2024/01/08 01:34:07;;;;;;;9.43;6.03;;;-0.60;99.90;;;;;;5095858;28;20647;-76
2024/01/08 01:36:35;;;;;;;9.43;7.43;;;-0.60;99.90;;;;;;5096104;28;20179;-75
2024/01/08 01:39:02;;;;;;;7.83;6.47;;;-0.60;99.90;;;;;;5077807;28;20259;-75
2024/01/08 01:41:28;;;;;;;9.53;6.43;;;-0.60;99.90;;;;;;5095820;28;20231;-76
2024/01/08 01:43:53;;;;;;;8.87;6.67;;;-0.60;99.90;;;;;;5095842;28;20160;-75
2024/01/08 01:46:45;;;;;;;9.17;6.07;;;-0.60;99.90;;;;;;5095324;28;20195;-75
2024/01/08 01:49:17;;;;;;;10.33;7.07;;;-0.60;99.90;;;;;;5095732;28;20168;-75
2024/01/08 01:51:44;;;;;;;7.73;5.80;;;-0.60;99.90;;;;;;5095759;28;20203;-75
2024/01/08 01:54:12;;;;;;;8.50;5.80;;;-0.60;99.90;;;;;;5095539;28;20172;-74
2024/01/08 01:56:40;;;;;;;7.70;5.87;;;-0.60;99.90;;;;;;5095830;28;20207;-75
2024/01/08 01:59:06;;;;;;;5.53;5.00;;;-0.70;99.90;;;;;;5095330;28;20196;-75
2024/01/08 02:01:34;;;;;;;7.63;6.87;;;-0.70;99.90;;;;;;5095158;28;20671;-74
2024/01/08 02:04:01;;;;;;;8.77;6.90;;;-0.70;99.90;;;;;;5095565;28;20255;-75
2024/01/08 02:06:28;;;;;;;8.53;5.50;;;-0.80;99.90;;;;;;5095308;28;20179;-75
2024/01/08 02:08:55;;;;;;;8.00;5.23;;;-0.80;99.90;;;;;;5095317;28;20251;-75
2024/01/08 02:11:21;;;;;;;9.00;6.73;;;-0.80;99.90;;;;;;5095385;28;20179;-75
2024/01/08 02:13:47;;;;;;;6.40;5.53;;;-0.80;99.90;;;;;;5095266;28;20220;-75
2024/01/08 02:16:14;;;;;;;9.77;5.40;;;-0.90;99.90;;;;;;5094948;28;20172;-75
2024/01/08 02:18:39;;;;;;;9.63;7.00;;;-0.80;99.90;;;;;;5095152;28;20176;-76
2024/01/08 02:21:05;;;;;;;9.70;7.53;;;-0.90;99.90;;;;;;5095060;28;20260;-75
2024/01/08 02:23:30;;;;;;;12.53;6.40;;;-0.90;99.90;;;;;;5076970;28;20179;-75
2024/01/08 02:25:56;;;;;;;7.10;5.50;;;-0.90;99.90;;;;;;5095003;28;20191;-75
2024/01/08 02:28:22;;;;;;;8.53;6.73;;;-0.90;99.90;;;;;;5094845;28;20585;-75
2024/01/08 02:30:48;;;;;;;8.33;6.77;;;-0.90;99.90;;;;;;5094880;28;20682;-75
2024/01/08 02:33:14;;;;;;;9.97;6.40;;;-1.00;99.90;;;;;;5095080;28;20513;-76
2024/01/08 02:35:41;;;;;;;11.13;6.73;;;-1.00;99.90;;;;;;5094979;28;20182;-75
2024/01/08 02:38:07;;;;;;;8.37;6.93;;;-1.00;99.90;;;;;;5094649;28;20198;-76
2024/01/08 02:40:32;;;;;;;12.83;7.53;;;-1.00;99.90;;;;;;5094649;28;20223;-76
2024/01/08 02:42:58;;;;;;;11.70;6.37;;;-1.00;99.90;;;;;;5094485;28;20174;-76
2024/01/08 02:45:23;;;;;;;8.30;6.80;;;-1.00;99.90;;;;;;5094683;28;20168;-74
2024/01/08 02:47:49;;;;;;;10.90;8.03;;;-1.00;99.90;;;;;;5095020;28;20168;-75
2024/01/08 02:50:14;;;;;;;10.70;8.17;;;-1.00;99.90;;;;;;5094639;28;20164;-75
2024/01/08 02:52:40;;;;;;;8.83;6.67;;;-1.10;99.90;;;;;;5094684;28;20171;-75
2024/01/08 02:55:06;;;;;;;6.73;5.90;;;-1.10;99.90;;;;;;5076465;28;20167;-75
2024/01/08 02:57:33;;;;;;;12.43;6.97;;;-1.00;99.90;;;;;;5094147;28;20183;-75
2024/01/08 02:59:58;;;;;;;10.57;7.50;;;-1.10;99.90;;;;;;5094442;28;20623;-75
2024/01/08 03:02:25;;;;;;;7.77;5.53;;;-1.00;99.90;;;;;;5094552;28;20175;-75
2024/01/08 03:04:51;;;;;;;9.77;7.33;;;-1.00;99.90;;;;;;5094205;28;20192;-75
2024/01/08 03:07:20;;;;;;;8.70;6.13;;;-1.00;99.90;;;;;;5094511;28;20172;-75
2024/01/08 03:09:46;;;;;;;13.10;7.13;;;-1.00;99.90;;;;;;5094141;28;20168;-75
2024/01/08 03:12:13;;;;;;;8.50;6.50;;;-1.00;99.90;;;;;;5094088;28;20213;-76
2024/01/08 03:14:39;;;;;;;7.10;5.53;;;-1.00;99.90;;;;;;5094308;28;20179;-75
2024/01/08 03:17:04;;;;;;;6.73;5.33;;;-1.00;99.90;;;;;;5093970;28;20176;-75
2024/01/08 03:19:30;;;;;;;11.97;7.90;;;-1.10;99.90;;;;;;5094236;28;20168;-75
2024/01/08 03:21:56;;;;;;;10.53;7.70;;;-1.00;99.90;;;;;;5094211;28;20667;-76
2024/01/08 03:24:21;;;;;;;11.37;7.17;;;-1.00;99.90;;;;;;5094079;28;20218;-75
2024/01/08 03:26:47;;;;;;;11.83;7.77;;;-1.00;99.90;;;;;;5093623;28;20182;-75
2024/01/08 03:29:13;;;;;;;11.47;8.80;;;-1.10;99.90;;;;;;5093861;28;20690;-76
2024/01/08 03:31:42;;;;;;;8.50;6.53;;;-1.10;99.90;;;;;;5094128;28;20187;-74
2024/01/08 03:34:08;;;;;;;12.40;8.70;;;-1.00;99.90;;;;;;5093856;28;20172;-75
2024/01/08 03:36:34;;;;;;;11.83;7.47;;;-1.10;99.90;;;;;;5093863;28;20171;-76
2024/01/08 03:39:00;;;;;;;10.13;7.77;;;-1.20;99.90;;;;;;5093684;28;20167;-75
2024/01/08 03:41:26;;;;;;;12.43;9.10;;;-1.10;99.90;;;;;;5075236;28;20294;-75
2024/01/08 03:43:51;;;;;;;10.50;7.57;;;-1.10;99.90;;;;;;5075520;28;20207;-75
2024/01/08 03:46:17;;;;;;;13.67;8.87;;;-1.10;99.90;;;;;;5093729;28;20178;-75
2024/01/08 03:48:42;;;;;;;13.10;8.70;;;-1.00;99.90;;;;;;5093691;28;20171;-75
2024/01/08 03:51:08;;;;;;;12.10;7.70;;;-1.10;99.90;;;;;;5092749;28;20168;-77
2024/01/08 03:53:33;;;;;;;13.03;8.60;;;-1.10;99.90;;;;;;5093472;28;20172;-76
2024/01/08 03:55:59;;;;;;;10.27;7.60;;;-1.10;99.90;;;;;;5093131;28;20172;-76
2024/01/08 03:58:25;;;;;;;8.73;6.83;;;-1.00;99.90;;;;;;5093533;28;20168;-76
2024/01/08 04:00:52;;;;;;;9.67;7.90;;;-1.00;99.90;;;;;;5093247;28;20239;-75
2024/01/08 04:03:17;;;;;;;8.70;6.70;;;-1.00;99.90;;;;;;5075353;28;20175;-75
2024/01/08 04:05:43;;;;;;;9.73;6.50;;;-1.00;99.90;;;;;;5093243;28;20655;-75
2024/01/08 04:08:08;;;;;;;9.77;7.83;;;-1.10;99.90;;;;;;5093407;28;20172;-76
2024/01/08 04:10:34;;;;;;;11.27;7.83;;;-1.00;99.90;;;;;;5093302;28;20168;-76
2024/01/08 04:12:59;;;;;;;11.37;7.30;;;-1.00;99.90;;;;;;5093476;28;20228;-76
2024/01/08 04:15:25;;;;;;;8.13;7.03;;;-1.10;99.90;;;;;;5075156;28;20172;-76
2024/01/08 04:17:50;;;;;;;8.60;7.17;;;-1.10;99.90;;;;;;5092880;28;20182;-75
2024/01/08 04:20:16;;;;;;;7.30;6.00;;;-1.10;99.90;;;;;;5092889;28;20730;-76
2024/01/08 04:22:45;;;;;;;10.00;6.97;;;-1.00;99.90;;;;;;5093187;28;20180;-75
2024/01/08 04:25:11;;;;;;;6.73;4.50;;;-1.00;99.90;;;;;;5092957;28;20175;-75
2024/01/08 04:27:37;;;;;;;6.57;5.60;;;-0.90;99.90;;;;;;5075210;28;20183;-76
2024/01/08 04:30:03;;;;;;;7.70;6.30;;;-1.00;99.90;;;;;;5092826;28;20219;-76
2024/01/08 04:32:29;;;;;;;7.20;4.43;;;-1.10;99.90;;;;;;5093079;28;20172;-76
2024/01/08 04:34:54;;;;;;;7.23;6.33;;;-1.10;99.90;;;;;;5093112;28;20582;-76
2024/01/08 04:37:20;;;;;;;6.43;5.13;;;-1.10;99.90;;;;;;5092775;28;20176;-75
2024/01/08 04:39:46;;;;;;;5.67;5.10;;;-1.00;99.90;;;;;;5092890;28;20172;-75
2024/01/08 04:42:11;;;;;;;5.80;5.13;;;-1.10;99.90;;;;;;5092828;28;20280;-74
2024/01/08 04:44:37;;;;;;;5.57;4.63;;;-1.00;99.90;;;;;;5092974;28;20204;-75
2024/01/08 04:47:03;;;;;;;6.13;5.47;;;-1.00;99.90;;;;;;5093266;28;20168;-75
2024/01/08 04:49:28;;;;;;;6.40;5.77;;;-1.10;99.90;;;;;;5093327;28;20204;-75
2024/01/08 04:51:54;;;;;;;5.70;5.20;;;-0.90;99.90;;;;;;5092896;28;20168;-76
2024/01/08 04:54:19;;;;;;;7.17;6.37;;;-0.90;99.90;;;;;;5092366;28;20636;-75
2024/01/08 04:56:47;;;;;;;7.43;5.70;;;-1.00;99.90;;;;;;5094416;28;20255;-74
2024/01/08 04:59:13;;;;;;;8.23;6.43;;;-0.90;99.90;;;;;;5097145;28;20168;-76
2024/01/08 05:01:39;;;;;;;8.00;6.33;;;-1.00;99.90;;;;;;5099899;28;20207;-76
2024/01/08 05:04:05;;;;;;;7.57;6.57;;;-1.00;99.90;;;;;;5099032;28;20171;-75
2024/01/08 05:06:30;;;;;;;5.90;5.20;;;-1.00;99.90;;;;;;5097093;28;20546;-76
2024/01/08 05:08:56;;;;;;;6.60;5.33;;;-1.00;99.90;;;;;;5096514;28;20255;-76
2024/01/08 05:11:21;;;;;;;13.43;6.83;;;-1.00;99.90;;;;;;5096641;28;20168;-76
2024/01/08 05:13:47;;;;;;;5.57;4.83;;;-1.10;99.90;;;;;;5078088;28;20169;-75
2024/01/08 05:16:13;;;;;;;9.57;5.97;;;-1.10;99.90;;;;;;5077810;28;20187;-76
2024/01/08 05:18:38;;;;;;;8.80;5.67;;;-1.20;99.90;;;;;;5096287;28;20171;-76
2024/01/08 05:21:04;;;;;;;6.30;5.37;;;-1.20;99.90;;;;;;5096021;28;20302;-76
2024/01/08 05:23:30;;;;;;;9.23;6.90;;;-1.30;99.90;;;;;;5095890;28;20164;-75
2024/01/08 05:25:59;;;;;;;9.63;7.03;;;-1.30;99.90;;;;;;5096049;28;20611;-76
2024/01/08 05:28:28;;;;;;;9.97;7.17;;;-1.40;99.90;;;;;;5096273;28;20183;-75
2024/01/08 05:30:54;;;;;;;9.00;7.53;;;-1.40;99.90;;;;;;5095731;28;20220;-77
2024/01/08 05:33:20;;;;;;;7.93;7.13;;;-1.40;99.90;;;;;;5095531;28;20642;-76
2024/01/08 05:35:46;;;;;;;10.10;7.53;;;-1.40;99.90;;;;;;5095871;28;20168;-76
2024/01/08 05:38:12;;;;;;;8.53;6.30;;;-1.40;99.90;;;;;;5095666;28;20175;-77
2024/01/08 05:40:37;;;;;;;12.00;7.43;;;-1.40;99.90;;;;;;5095621;28;20195;-75
2024/01/08 05:43:04;;;;;;;7.27;5.70;;;-1.40;99.90;;;;;;5095225;28;20174;-76
2024/01/08 05:45:30;;;;;;;9.77;5.93;;;-1.30;99.90;;;;;;5095243;28;20171;-76
2024/01/08 05:47:56;;;;;;;7.83;6.23;;;-1.40;99.90;;;;;;5095521;28;20637;-76
2024/01/08 05:50:27;;;;;;;8.00;5.70;;;-1.40;99.90;;;;;;5095090;28;20170;-75
2024/01/08 05:52:55;;;;;;;8.73;6.67;;;-1.40;99.90;;;;;;5095135;28;20523;-75
2024/01/08 05:55:22;;;;;;;8.70;5.93;;;-1.50;99.90;;;;;;5095485;28;20631;-75
2024/01/08 05:57:48;;;;;;;8.17;6.63;;;-1.40;99.90;;;;;;5095139;28;20199;-75
2024/01/08 06:00:14;;;;;;;7.03;4.70;;;-1.40;99.90;;;;;;5095213;28;20647;-76
2024/01/08 06:02:40;;;;;;;6.97;5.03;;;-1.50;99.90;;;;;;5094937;28;20174;-77
2024/01/08 06:05:06;;;;;;;4.90;4.40;;;-1.50;99.90;;;;;;5095392;28;20188;-76
2024/01/08 06:07:32;;;;;;;5.17;4.03;;;-1.50;99.90;;;;;;5094869;28;20258;-75
2024/01/08 06:09:58;;;;;;;8.47;6.70;;;-1.50;99.90;;;;;;5095201;28;20191;-75
2024/01/08 06:12:23;;;;;;;6.43;5.77;;;-1.50;99.90;;;;;;5075612;28;20218;-76
2024/01/08 06:14:49;;;;;;;9.10;6.20;;;-1.40;99.90;;;;;;5094764;28;20168;-75
2024/01/08 06:17:14;;;;;;;9.27;6.90;;;-1.40;99.90;;;;;;5094505;28;20182;-77
2024/01/08 06:19:41;;;;;;;10.17;7.40;;;-1.30;99.90;;;;;;5094392;28;20172;-76
2024/01/08 06:22:06;;;;;;;9.57;7.20;;;-1.20;99.90;;;;;;5094507;28;20238;-76
2024/01/08 06:24:32;;;;;;;6.97;5.63;;;-1.20;99.90;;;;;;5094471;28;20549;-76
2024/01/08 06:26:58;;;;;;;7.37;5.37;;;-1.20;99.90;;;;;;5094290;28;20168;-77
2024/01/08 06:29:24;;;;;;;9.13;5.83;;;-1.20;99.90;;;;;;5094313;28;20226;-76
2024/01/08 06:31:49;;;;;;;9.23;6.43;;;-1.30;99.90;;;;;;5094942;28;20476;-76
2024/01/08 06:34:15;;;;;;;11.97;7.00;;;-1.30;99.90;;;;;;5075918;28;20178;-77
2024/01/08 06:36:41;;;;;;;8.47;6.40;;;-1.30;99.90;;;;;;5075073;28;20188;-76
2024/01/08 06:39:09;;;;;;;8.60;6.53;;;-1.20;99.90;;;;;;5093944;28;20252;-75
2024/01/08 06:41:35;;;;;;;12.03;7.20;;;-1.20;99.90;;;;;;5093657;28;20208;-76
2024/01/08 06:44:01;;;;;;;7.97;6.13;;;-1.20;99.90;;;;;;5093996;28;20176;-76
2024/01/08 06:46:26;;;;;;;9.50;6.67;;;-1.20;99.90;;;;;;5093524;28;20185;-77
2024/01/08 06:48:52;;;;;;;9.13;6.57;;;-1.20;99.90;;;;;;5075285;28;20631;-77
2024/01/08 06:51:19;;;;;;;9.90;6.40;;;-1.20;99.90;;;;;;5093551;28;20168;-76
2024/01/08 06:53:45;;;;;;;8.43;6.00;;;-1.30;99.90;;;;;;5094074;28;20175;-76
2024/01/08 06:56:11;;;;;;;9.30;6.47;;;-1.30;99.90;;;;;;5093569;28;20172;-77
2024/01/08 06:58:37;;;;;;;12.10;7.03;;;-1.30;99.90;;;;;;5093331;28;20282;-75
2024/01/08 07:01:03;;;;;;;8.83;6.83;;;-1.30;99.90;;;;;;5093148;28;20217;-76
2024/01/08 07:03:28;;;;;;;4.93;4.40;;;-1.30;99.90;;;;;;5093780;28;20235;-77
2024/01/08 07:05:54;;;;;;;8.73;5.87;;;-1.30;99.90;;;;;;5093172;28;20227;-76
2024/01/08 07:08:19;;;;;;;10.90;7.60;;;-1.40;99.90;;;;;;5093512;28;20176;-76
2024/01/08 07:10:45;;;;;;;10.33;6.30;;;-1.30;99.90;;;;;;5074864;28;20311;-76
2024/01/08 07:13:11;;;;;;;14.40;7.50;;;-1.30;99.90;;;;;;5093421;28;20183;-76
2024/01/08 07:15:40;;;;;;;9.90;6.53;;;-1.30;99.90;;;;;;5093019;28;20184;-76
2024/01/08 07:18:08;;;;;;;10.33;7.40;;;-1.20;99.90;;;;;;5092879;28;20174;-78
2024/01/08 07:20:34;;;;;;;13.00;6.67;;;-1.20;99.90;;;;;;5093067;28;20199;-76
2024/01/08 07:23:00;;;;;;;7.30;5.40;;;-1.20;99.90;;;;;;5093306;28;20164;-76
2024/01/08 07:25:26;;;;;;;8.93;6.70;;;-1.30;99.90;;;;;;5093057;28;20244;-77
2024/01/08 07:27:52;;;;;;;11.63;7.10;;;-1.40;99.90;;;;;;5093515;28;20254;-75
2024/01/08 07:30:17;;;;;;;7.00;5.47;;;-1.40;99.90;;;;;;5092902;28;20223;-76
2024/01/08 07:32:43;;;;;;;10.17;6.47;;;-1.30;99.90;;;;;;5093212;28;20176;-76
2024/01/08 07:35:08;;;;;;;8.83;6.47;;;-1.30;99.90;;;;;;5092809;28;20176;-75
2024/01/08 07:37:34;;;;;;;8.23;6.47;;;-1.30;99.90;;;;;;5093083;28;20251;-76
2024/01/08 07:40:00;;;;;;;9.47;6.50;;;-1.30;99.90;;;;;;5093096;28;20175;-78
2024/01/08 07:42:26;;;;;;;13.47;6.47;;;-1.30;99.90;;;;;;5093020;28;20199;-77
2024/01/08 07:44:51;;;;;;;8.43;6.67;;;-1.30;99.90;;;;;;5073783;28;20607;-76
2024/01/08 07:47:17;;;;;;;9.10;6.43;;;-1.40;99.90;;;;;;5074930;28;20600;-74
2024/01/08 07:49:42;;;;;;;10.80;7.47;;;-1.40;99.90;;;;;;5092772;28;20242;-76
2024/01/08 07:52:08;;;;;;;9.10;6.57;;;-1.30;99.90;;;;;;5093358;28;20676;-75
2024/01/08 07:54:33;;;;;;;11.80;7.47;;;-1.40;99.90;;;;;;5092546;28;20168;-76
2024/01/08 07:56:59;;;;;;;9.37;6.10;;;-1.30;99.90;;;;;;5074891;28;20168;-76
2024/01/08 07:59:24;;;;;;;6.50;4.77;;;-1.20;99.90;;;;;;5092818;28;20623;-75
2024/01/08 08:01:50;;;;;;;9.80;6.37;;;-1.20;99.90;;;;;;5092637;28;20551;-76
2024/01/08 08:04:15;;;;;;;10.43;7.47;;;-1.20;99.90;;;;;;5092874;28;20518;-75
2024/01/08 08:06:41;;;;;;;10.33;7.10;;;-1.20;99.90;;;;;;5092510;28;20674;-75
2024/01/08 08:09:07;;;;;;;12.83;7.30;;;-1.20;99.90;;;;;;5074442;28;20171;-75
2024/01/08 08:11:32;;;;;;;10.47;7.20;;;-1.20;99.90;;;;;;5092434;28;20183;-76
2024/01/08 08:13:58;;;;;;;11.57;7.77;;;-1.10;99.90;;;;;;5092402;28;20174;-76
2024/01/08 08:16:24;;;;;;;14.90;6.47;;;-1.20;99.90;;;;;;5092187;28;20168;-76
2024/01/08 08:18:49;;;;;;;9.47;7.37;;;-1.10;99.90;;;;;;5092294;28;20172;-77
2024/01/08 08:21:16;;;;;;;10.57;6.47;;;-1.10;99.90;;;;;;5074364;28;20298;-75
2024/01/08 08:23:42;;;;;;;10.07;7.33;;;-1.10;99.90;;;;;;5092505;28;20196;-76
2024/01/08 08:26:08;;;;;;;8.77;5.83;;;-1.10;99.90;;;;;;5092296;28;20196;-76
2024/01/08 08:28:33;;;;;;;8.10;6.50;;;-1.10;99.90;;;;;;5092684;28;20210;-76
2024/01/08 08:30:59;;;;;;;10.40;6.57;;;-1.10;99.90;;;;;;5092307;28;20223;-75
2024/01/08 08:33:24;;;;;;;10.63;7.73;;;-1.20;99.90;;;;;;5092719;28;20203;-76
2024/01/08 08:35:50;;;;;;;13.83;8.03;;;-1.20;99.90;;;;;;5092986;28;20176;-76
2024/01/08 08:38:16;;;;;;;12.10;8.10;;;-1.20;99.90;;;;;;5096514;28;20172;-76
2024/01/08 08:40:43;;;;;;;7.93;4.83;;;-1.10;99.90;;;;;;5095793;28;20231;-81
2024/01/08 08:43:09;;;;;;;8.73;7.40;;;-1.10;99.90;;;;;;5096136;28;20522;-76
2024/01/08 08:45:35;;;;;;;14.37;8.23;;;-1.10;99.90;;;;;;5095457;28;20171;-76
2024/01/08 08:48:00;;;;;;;12.10;8.43;;;-1.10;99.90;;;;;;5096365;28;20187;-76
2024/01/08 08:50:27;;;;;;;12.17;8.67;;;-1.10;99.90;;;;;;5096159;28;20281;-76
2024/01/08 08:52:52;;;;;;;15.00;8.60;;;-1.00;99.90;;;;;;5096583;28;20255;-77
2024/01/08 08:55:18;;;;;;;14.97;9.03;;;-1.00;99.90;;;;;;5096345;28;20305;-76
2024/01/08 08:57:44;;;;;;;10.00;7.33;;;-1.00;99.90;;;;;;5095742;28;20172;-76
2024/01/08 09:00:10;;;;;;;12.33;9.00;;;-1.00;99.90;;;;;;5096018;28;20183;-75
2024/01/08 09:02:36;;;;;;;13.23;8.83;;;-1.00;99.90;;;;;;5096295;28;20182;-78
2024/01/08 09:05:03;;;;;;;9.57;7.23;;;-1.00;99.90;;;;;;5077585;28;20192;-78
2024/01/08 09:07:28;;;;;;;13.67;9.10;;;-0.90;99.90;;;;;;5095905;28;20209;-75
2024/01/08 09:09:54;;;;;;;15.03;9.13;;;-0.90;99.90;;;;;;5095893;28;20175;-75
2024/01/08 09:12:19;;;;;;;9.53;7.17;;;-0.90;99.90;;;;;;5077698;28;20634;-77
2024/01/08 09:14:45;;;;;;;16.40;10.03;;;-0.80;99.90;;;;;;5095681;28;20685;-75
2024/01/08 09:17:11;;;;;;;13.40;9.40;;;-0.80;99.90;;;;;;5096081;28;20211;-76
2024/01/08 09:19:38;;;;;;;15.67;9.03;;;-0.80;99.90;;;;;;5096031;28;20171;-75
2024/01/08 09:22:03;;;;;;;11.60;8.53;;;-0.80;99.90;;;;;;5095949;28;20200;-75
2024/01/08 09:24:29;;;;;;;12.97;7.83;;;-0.80;99.90;;;;;;5095987;28;20190;-76
2024/01/08 09:26:55;;;;;;;16.27;9.07;;;-0.90;99.90;;;;;;5095186;28;20179;-76
2024/01/08 09:29:21;;;;;;;16.57;10.47;;;-0.80;99.90;;;;;;5095000;28;20243;-77
2024/01/08 09:31:46;;;;;;;17.30;9.80;;;-0.90;99.90;;;;;;5095649;28;20168;-76
2024/01/08 09:34:12;;;;;;;13.27;9.00;;;-0.80;99.90;;;;;;5077509;28;20179;-75
2024/01/08 09:36:37;;;;;;;17.87;10.27;;;-0.80;99.90;;;;;;5095905;28;20172;-76
2024/01/08 09:39:03;;;;;;;14.00;9.97;;;-0.80;99.90;;;;;;5077429;28;20541;-76
2024/01/08 09:41:29;;;;;;;14.87;10.73;;;-0.80;99.90;;;;;;5094975;28;20198;-76
2024/01/08 09:44:00;;;;;;;12.87;9.23;;;-0.70;99.90;;;;;;5095567;28;20172;-76
2024/01/08 09:46:28;;;;;;;13.70;9.00;;;-0.70;99.90;;;;;;5095037;28;20636;-76
2024/01/08 09:48:54;;;;;;;14.87;9.00;;;-0.80;99.90;;;;;;5095213;28;20198;-75
2024/01/08 09:51:21;;;;;;;13.03;8.27;;;-0.90;99.90;;;;;;5095471;28;20175;-76
2024/01/08 09:53:48;;;;;;;15.17;9.97;;;-1.00;99.90;;;;;;5095435;28;20207;-76
2024/01/08 09:56:17;;;;;;;14.97;9.60;;;-1.00;99.90;;;;;;5094941;28;20191;-76
2024/01/08 09:58:43;;;;;;;17.00;10.47;;;-0.80;99.90;;;;;;5094376;28;20193;-75
2024/01/08 10:01:09;;;;;;;15.53;10.50;;;-0.80;99.90;;;;;;5095204;28;20208;-76
2024/01/08 10:03:35;;;;;;;15.57;9.03;;;-0.80;99.90;;;;;;5094831;28;20603;-76
2024/01/08 10:06:10;;;;;;;17.90;12.33;;;-0.70;99.90;;;;;;5094941;28;20223;-76
2024/01/08 10:08:35;;;;;;;13.53;8.87;;;-0.50;99.90;;;;;;5094856;28;20172;-77
2024/01/08 10:11:05;;;;;;;8.50;6.30;;;-0.50;99.90;;;;;;5094965;28;20172;-76
2024/01/08 10:13:31;;;;;;;15.80;10.43;;;-0.50;99.90;;;;;;5094422;28;20211;-76
2024/01/08 10:15:57;;;;;;;15.60;8.63;;;-0.50;99.90;;;;;;5094395;28;20181;-76
2024/01/08 10:18:24;;;;;;;12.67;9.00;;;-0.40;99.90;;;;;;5094331;28;20398;-76
2024/01/08 10:21:10;;;;;;;17.40;10.23;;;-0.40;99.90;;;;;;5094438;28;20206;-76
2024/01/08 10:23:36;;;;;;;12.17;8.63;;;-0.50;99.90;;;;;;5094979;28;20265;-75
2024/01/08 10:26:03;;;;;;;11.63;8.23;;;-0.50;99.90;;;;;;5094102;28;20263;-75
2024/01/08 10:28:35;;;;;;;14.80;9.97;;;-0.50;99.90;;;;;;5094278;28;20176;-75
2024/01/08 10:31:06;;;;;;;11.43;7.83;;;-0.40;99.90;;;;;;5094350;28;20231;-75
2024/01/08 10:33:32;;;;;;;15.47;10.90;;;-0.40;99.90;;;;;;5094341;28;20179;-76
2024/01/08 10:36:01;;;;;;;15.50;11.33;;;-0.30;99.90;;;;;;5094222;28;20580;-75
2024/01/08 10:38:29;;;;;;;13.97;10.47;;;-0.30;99.90;;;;;;5094314;28;20174;-75
2024/01/08 10:40:56;;;;;;;16.20;11.17;;;-0.30;99.90;;;;;;5094062;28;20207;-75
2024/01/08 10:43:21;;;;;;;13.37;9.63;;;-0.20;99.90;;;;;;5093714;28;20177;-74
2024/01/08 10:45:51;;;;;;;14.00;9.23;;;-0.30;99.90;;;;;;5094156;28;20180;-76
2024/01/08 10:48:21;;;;;;;15.67;11.33;;;-0.40;99.90;;;;;;5094087;28;20160;-76
2024/01/08 10:50:52;;;;;;;15.50;11.13;;;-0.40;99.90;;;;;;5094152;28;20179;-75
2024/01/08 10:53:39;;;;;;;13.33;10.07;;;-0.30;99.90;;;;;;5094151;28;20192;-75
2024/01/08 10:56:08;;;;;;;17.37;11.10;;;-0.30;99.90;;;;;;5093844;28;20247;-77
2024/01/08 10:58:37;;;;;;;14.97;11.30;;;-0.40;99.90;;;;;;5092323;28;20190;-75
2024/01/08 11:01:03;;;;;;;13.87;9.50;;;-0.30;99.90;;;;;;5093761;28;20730;-75
2024/01/08 11:03:30;;;;;;;12.57;9.77;;;-0.40;99.90;;;;;;5093667;28;20169;-76
2024/01/08 11:05:58;;;;;;;13.10;9.07;;;-0.30;99.90;;;;;;5093484;28;20599;-76
2024/01/08 11:08:25;;;;;;;13.83;10.07;;;-0.40;99.90;;;;;;5093938;28;20173;-76
2024/01/08 11:10:51;;;;;;;13.93;10.33;;;-0.30;99.90;;;;;;5093368;28;20172;-76
2024/01/08 11:13:16;;;;;;;11.33;8.40;;;-0.20;99.90;;;;;;5093554;28;20176;-76
2024/01/08 11:15:46;;;;;;;15.00;10.07;;;-0.30;99.90;;;;;;5093522;28;20689;-76
2024/01/08 11:18:27;;;;;;;8.97;6.83;;;-0.30;99.90;;;;;;5093306;28;20297;-76
2024/01/08 11:20:56;;;;;;;13.17;9.77;;;-0.20;99.90;;;;;;5093720;28;20361;-76
2024/01/08 11:23:38;;;;;;;12.30;8.40;;;-0.20;99.90;;;;;;5093637;28;20177;-75
2024/01/08 11:26:14;;;;;;;13.57;9.03;;;-0.10;99.90;;;;;;5093130;28;20165;-76
2024/01/08 11:28:41;;;;;;;12.03;6.27;;;-0.20;99.90;;;;;;5075191;28;20175;-75
2024/01/08 11:31:09;;;;;;;11.00;7.17;;;-0.20;99.90;;;;;;5093104;28;20333;-76
2024/01/08 11:33:56;;;;;;;13.63;10.00;;;-0.20;99.90;;;;;;5092888;28;20168;-76
2024/01/08 11:36:39;;;;;;;16.73;9.87;;;-0.20;99.90;;;;;;5093531;28;20207;-75
2024/01/08 11:39:13;;;;;;;10.77;8.53;;;0.00;99.90;;;;;;5093393;28;20171;-76
2024/01/08 11:41:39;;;;;;;12.50;9.37;;;-0.10;99.90;;;;;;5092745;28;20205;-76
2024/01/08 11:44:05;;;;;;;8.67;6.77;;;-0.10;99.90;;;;;;5092643;28;20191;-77
2024/01/08 11:46:31;;;;;;;11.97;7.67;;;-0.10;99.90;;;;;;5075031;28;20180;-76
2024/01/08 11:48:57;;;;;;;10.00;7.47;;;-0.20;99.90;;;;;;5093265;28;20276;-77
2024/01/08 11:51:23;;;;;;;10.93;8.43;;;-0.30;99.90;;;;;;5093211;28;20688;-75
2024/01/08 11:53:51;;;;;;;10.33;8.00;;;-0.10;99.90;;;;;;5092748;28;20169;-76
2024/01/08 11:56:17;;;;;;;12.43;9.27;;;0.10;99.90;;;;;;5074566;28;20612;-75
2024/01/08 11:58:47;;;;;;;11.43;8.60;;;0.20;99.90;;;;;;5074583;28;20255;-75
2024/01/08 12:01:19;;;;;;;9.33;7.20;;;0.40;99.90;;;;;;5092970;28;20220;-76
2024/01/08 12:03:44;;;;;;;7.33;5.27;;;0.30;99.90;;;;;;5092720;28;20595;-76
2024/01/08 12:06:12;;;;;;;10.53;8.10;;;0.30;99.90;;;;;;5093132;28;20271;-75
2024/01/08 12:08:38;;;;;;;9.27;7.27;;;0.40;99.90;;;;;;5092716;28;20174;-76
2024/01/08 12:11:04;;;;;;;9.67;6.80;;;0.40;99.90;;;;;;5091701;28;20171;-76
2024/01/08 12:13:30;;;;;;;9.23;7.70;;;0.40;99.90;;;;;;5092714;28;20166;-76
2024/01/08 12:15:56;;;;;;;8.83;6.87;;;0.30;99.90;;;;;;5092904;28;20255;-75
2024/01/08 12:18:23;;;;;;;7.37;5.57;;;0.40;99.90;;;;;;5092678;28;20722;-76
2024/01/08 12:20:50;;;;;;;7.00;6.30;;;0.50;99.90;;;;;;5092118;28;20203;-75
2024/01/08 12:23:15;;;;;;;10.73;7.83;;;0.50;99.90;;;;;;5092435;28;20631;-76
2024/01/08 12:25:41;;;;;;;8.23;7.43;;;0.30;99.90;;;;;;5092132;28;20324;-76
2024/01/08 12:28:07;;;;;;;7.83;7.03;;;0.40;99.90;;;;;;5092192;28;20533;-75
2024/01/08 12:30:33;;;;;;;8.10;6.30;;;0.40;99.90;;;;;;5092503;28;20229;-75
2024/01/08 12:32:59;;;;;;;7.87;7.07;;;0.40;99.90;;;;;;5092242;28;20181;-75
2024/01/08 12:35:24;;;;;;;10.57;7.70;;;0.60;99.90;;;;;;5092203;28;20170;-75
2024/01/08 12:37:50;;;;;;;9.73;7.70;;;0.70;99.90;;;;;;5092407;28;20684;-76